sensor_id;sensor_type;location;lat;lon;timestamp;pressure;altitude;pressure_sealevel;temperature;humidity
74230;BME280;62589;12.568;99.958;2023-04-24T00:01:39;100902.25;;;34.93;49.24
74230;BME280;62589;12.568;99.958;2023-04-24T00:04:06;100907.81;;;34.97;49.60
74230;BME280;62589;12.568;99.958;2023-04-24T00:06:37;100908.22;;;34.99;49.81
74230;BME280;62589;12.568;99.958;2023-04-24T00:09:04;100906.63;;;35.05;49.92
74230;BME280;62589;12.568;99.958;2023-04-24T00:11:30;100909.81;;;35.07;50.58
74230;BME280;62589;12.568;99.958;2023-04-24T00:13:57;100913.41;;;35.11;50.33
74230;BME280;62589;12.568;99.958;2023-04-24T00:16:23;100923.75;;;35.18;50.22
74230;BME280;62589;12.568;99.958;2023-04-24T00:18:50;100919.34;;;35.24;50.10
74230;BME280;62589;12.568;99.958;2023-04-24T00:21:18;100919.00;;;35.29;49.55
74230;BME280;62589;12.568;99.958;2023-04-24T00:23:44;100920.59;;;35.33;49.64
74230;BME280;62589;12.568;99.958;2023-04-24T00:26:11;100922.53;;;35.36;49.20
74230;BME280;62589;12.568;99.958;2023-04-24T00:28:37;100927.31;;;35.43;49.12
74230;BME280;62589;12.568;99.958;2023-04-24T00:31:03;100931.31;;;35.49;48.78
74230;BME280;62589;12.568;99.958;2023-04-24T00:33:30;100926.50;;;35.53;48.58
74230;BME280;62589;12.568;99.958;2023-04-24T00:35:56;100929.66;;;35.59;48.26
74230;BME280;62589;12.568;99.958;2023-04-24T00:38:23;100934.44;;;35.65;48.00
74230;BME280;62589;12.568;99.958;2023-04-24T00:40:49;100935.63;;;35.71;47.74
74230;BME280;62589;12.568;99.958;2023-04-24T00:43:16;100940.81;;;35.76;47.31
74230;BME280;62589;12.568;99.958;2023-04-24T00:45:43;100946.78;;;35.82;47.00
74230;BME280;62589;12.568;99.958;2023-04-24T00:48:09;100955.53;;;35.88;46.82
74230;BME280;62589;12.568;99.958;2023-04-24T00:50:36;100963.09;;;35.94;46.67
74230;BME280;62589;12.568;99.958;2023-04-24T00:53:04;100967.47;;;35.99;46.20
74230;BME280;62589;12.568;99.958;2023-04-24T00:55:30;100973.03;;;36.06;45.99
74230;BME280;62589;12.568;99.958;2023-04-24T00:57:57;100968.63;;;36.08;46.07
74230;BME280;62589;12.568;99.958;2023-04-24T01:00:24;100970.22;;;36.13;45.93
74230;BME280;62589;12.568;99.958;2023-04-24T01:02:51;100969.41;;;36.16;46.23
74230;BME280;62589;12.568;99.958;2023-04-24T01:05:19;100978.53;;;36.24;46.19
74230;BME280;62589;12.568;99.958;2023-04-24T01:07:46;100991.72;;;36.30;45.93
74230;BME280;62589;12.568;99.958;2023-04-24T01:10:15;100999.69;;;36.35;46.28
74230;BME280;62589;12.568;99.958;2023-04-24T01:12:43;100997.22;;;36.41;46.00
74230;BME280;62589;12.568;99.958;2023-04-24T01:15:10;100997.22;;;36.44;45.87
74230;BME280;62589;12.568;99.958;2023-04-24T01:17:36;100999.19;;;36.51;46.01
74230;BME280;62589;12.568;99.958;2023-04-24T01:20:04;101005.16;;;36.57;46.15
74230;BME280;62589;12.568;99.958;2023-04-24T01:22:33;101013.88;;;36.62;45.79
74230;BME280;62589;12.568;99.958;2023-04-24T01:25:00;101005.47;;;36.66;45.26
74230;BME280;62589;12.568;99.958;2023-04-24T01:27:27;101008.25;;;36.73;45.02
74230;BME280;62589;12.568;99.958;2023-04-24T01:29:54;101011.44;;;36.78;44.78
74230;BME280;62589;12.568;99.958;2023-04-24T01:32:20;101006.97;;;36.85;45.01
74230;BME280;62589;12.568;99.958;2023-04-24T01:34:47;101005.34;;;36.91;44.95
74230;BME280;62589;12.568;99.958;2023-04-24T01:37:14;101014.09;;;36.96;44.71
74230;BME280;62589;12.568;99.958;2023-04-24T01:39:41;101002.44;;;37.01;44.94
74230;BME280;62589;12.568;99.958;2023-04-24T01:42:07;101012.00;;;37.07;44.65
74230;BME280;62589;12.568;99.958;2023-04-24T01:44:34;101015.94;;;37.13;44.71
74230;BME280;62589;12.568;99.958;2023-04-24T01:47:01;101008.31;;;37.17;44.13
74230;BME280;62589;12.568;99.958;2023-04-24T01:49:28;101010.25;;;37.28;43.95
74230;BME280;62589;12.568;99.958;2023-04-24T01:51:54;101003.78;;;37.34;43.24
74230;BME280;62589;12.568;99.958;2023-04-24T01:54:20;101014.97;;;37.38;43.32
74230;BME280;62589;12.568;99.958;2023-04-24T01:56:47;101010.50;;;37.44;42.87
74230;BME280;62589;12.568;99.958;2023-04-24T01:59:14;101023.63;;;37.50;42.86
74230;BME280;62589;12.568;99.958;2023-04-24T02:01:41;101016.41;;;37.53;42.75
74230;BME280;62589;12.568;99.958;2023-04-24T02:04:08;101019.88;;;37.64;42.64
74230;BME280;62589;12.568;99.958;2023-04-24T02:06:34;101021.06;;;37.70;42.17
74230;BME280;62589;12.568;99.958;2023-04-24T02:09:01;101021.03;;;37.74;42.23
74230;BME280;62589;12.568;99.958;2023-04-24T02:11:28;101014.56;;;37.80;41.44
74230;BME280;62589;12.568;99.958;2023-04-24T02:13:56;101028.09;;;37.86;41.82
74230;BME280;62589;12.568;99.958;2023-04-24T02:16:23;101023.63;;;37.92;40.74
74230;BME280;62589;12.568;99.958;2023-04-24T02:18:49;101027.94;;;38.00;40.49
74230;BME280;62589;12.568;99.958;2023-04-24T02:21:15;101022.72;;;38.02;40.15
74230;BME280;62589;12.568;99.958;2023-04-24T02:23:42;101017.03;;;38.05;39.57
74230;BME280;62589;12.568;99.958;2023-04-24T02:26:08;101025.41;;;38.09;39.57
74230;BME280;62589;12.568;99.958;2023-04-24T02:28:35;101030.22;;;38.12;39.52
74230;BME280;62589;12.568;99.958;2023-04-24T02:31:01;101022.94;;;38.18;40.16
74230;BME280;62589;12.568;99.958;2023-04-24T02:33:28;101018.81;;;38.26;40.63
74230;BME280;62589;12.568;99.958;2023-04-24T02:35:54;101025.19;;;38.30;40.70
74230;BME280;62589;12.568;99.958;2023-04-24T02:38:21;101019.53;;;38.34;40.53
74230;BME280;62589;12.568;99.958;2023-04-24T02:40:47;101015.13;;;38.33;40.00
74230;BME280;62589;12.568;99.958;2023-04-24T02:43:13;101017.56;;;38.31;39.68
74230;BME280;62589;12.568;99.958;2023-04-24T02:45:40;101017.84;;;38.40;40.06
74230;BME280;62589;12.568;99.958;2023-04-24T02:48:06;101011.69;;;38.48;40.52
74230;BME280;62589;12.568;99.958;2023-04-24T02:50:33;101022.03;;;38.55;40.55
74230;BME280;62589;12.568;99.958;2023-04-24T02:52:59;101018.41;;;38.58;40.70
74230;BME280;62589;12.568;99.958;2023-04-24T02:55:26;101019.88;;;38.66;40.65
74230;BME280;62589;12.568;99.958;2023-04-24T02:57:52;101022.22;;;38.71;40.62
74230;BME280;62589;12.568;99.958;2023-04-24T03:00:19;101009.72;;;38.76;40.37
74230;BME280;62589;12.568;99.958;2023-04-24T03:02:45;101004.84;;;38.80;39.53
74230;BME280;62589;12.568;99.958;2023-04-24T03:05:12;100998.88;;;38.78;40.08
74230;BME280;62589;12.568;99.958;2023-04-24T03:07:38;101002.00;;;38.83;39.54
74230;BME280;62589;12.568;99.958;2023-04-24T03:10:05;100993.16;;;38.85;39.62
74230;BME280;62589;12.568;99.958;2023-04-24T03:12:32;100992.28;;;38.88;39.66
74230;BME280;62589;12.568;99.958;2023-04-24T03:14:59;100990.22;;;38.92;39.18
74230;BME280;62589;12.568;99.958;2023-04-24T03:17:28;100994.56;;;38.97;39.70
74230;BME280;62589;12.568;99.958;2023-04-24T03:19:55;100999.34;;;39.00;39.77
74230;BME280;62589;12.568;99.958;2023-04-24T03:22:22;100996.13;;;39.01;39.72
74230;BME280;62589;12.568;99.958;2023-04-24T03:24:48;100997.72;;;39.02;40.02
74230;BME280;62589;12.568;99.958;2023-04-24T03:27:14;100995.19;;;39.08;39.59
74230;BME280;62589;12.568;99.958;2023-04-24T03:29:41;100990.72;;;39.10;39.92
74230;BME280;62589;12.568;99.958;2023-04-24T03:32:07;100991.03;;;39.16;40.17
74230;BME280;62589;12.568;99.958;2023-04-24T03:34:33;100985.00;;;39.17;40.07
74230;BME280;62589;12.568;99.958;2023-04-24T03:37:00;100984.59;;;39.19;39.38
74230;BME280;62589;12.568;99.958;2023-04-24T03:39:27;100983.34;;;39.20;39.28
74230;BME280;62589;12.568;99.958;2023-04-24T03:41:53;100966.88;;;39.22;39.78
74230;BME280;62589;12.568;99.958;2023-04-24T03:44:19;100964.44;;;39.24;40.00
74230;BME280;62589;12.568;99.958;2023-04-24T03:46:46;100972.06;;;39.24;38.84
74230;BME280;62589;12.568;99.958;2023-04-24T03:49:12;100958.41;;;39.26;39.41
74230;BME280;62589;12.568;99.958;2023-04-24T03:51:39;100961.19;;;39.26;39.00
74230;BME280;62589;12.568;99.958;2023-04-24T03:54:05;100957.88;;;39.31;39.29
74230;BME280;62589;12.568;99.958;2023-04-24T03:56:31;100956.28;;;39.30;38.58
74230;BME280;62589;12.568;99.958;2023-04-24T03:58:58;100954.78;;;39.25;38.22
74230;BME280;62589;12.568;99.958;2023-04-24T04:01:24;100941.59;;;39.22;38.34
74230;BME280;62589;12.568;99.958;2023-04-24T04:03:50;100924.31;;;39.24;38.02
74230;BME280;62589;12.568;99.958;2023-04-24T04:06:17;100925.06;;;39.28;38.01
74230;BME280;62589;12.568;99.958;2023-04-24T04:08:45;100921.09;;;39.25;38.20
74230;BME280;62589;12.568;99.958;2023-04-24T04:24:46;100923.88;;;38.51;39.62
74230;BME280;62589;12.568;99.958;2023-04-24T04:27:14;100924.25;;;38.80;39.05
74230;BME280;62589;12.568;99.958;2023-04-24T04:29:42;100917.88;;;39.03;38.06
74230;BME280;62589;12.568;99.958;2023-04-24T04:32:09;100917.06;;;39.26;37.15
74230;BME280;62589;12.568;99.958;2023-04-24T04:47:51;100897.66;;;39.32;36.02
74230;BME280;62589;12.568;99.958;2023-04-24T04:50:18;100889.38;;;39.48;36.18
74230;BME280;62589;12.568;99.958;2023-04-24T04:52:45;100885.19;;;39.56;36.50
74230;BME280;62589;12.568;99.958;2023-04-24T04:55:11;100871.50;;;39.58;37.00
74230;BME280;62589;12.568;99.958;2023-04-24T04:57:39;100876.59;;;39.63;36.58
74230;BME280;62589;12.568;99.958;2023-04-24T05:00:06;100866.09;;;39.67;36.97
74230;BME280;62589;12.568;99.958;2023-04-24T05:02:33;100862.06;;;39.68;37.10
74230;BME280;62589;12.568;99.958;2023-04-24T05:04:59;100860.91;;;39.66;37.38
74230;BME280;62589;12.568;99.958;2023-04-24T05:07:26;100863.19;;;39.71;36.60
74230;BME280;62589;12.568;99.958;2023-04-24T05:09:52;100854.13;;;39.63;36.71
74230;BME280;62589;12.568;99.958;2023-04-24T05:12:19;100843.16;;;39.69;36.03
74230;BME280;62589;12.568;99.958;2023-04-24T05:14:45;100841.16;;;39.69;36.64
74230;BME280;62589;12.568;99.958;2023-04-24T05:17:11;100840.97;;;39.76;37.54
74230;BME280;62589;12.568;99.958;2023-04-24T05:19:38;100834.13;;;39.77;37.31
74230;BME280;62589;12.568;99.958;2023-04-24T05:22:04;100830.53;;;39.77;37.10
74230;BME280;62589;12.568;99.958;2023-04-24T05:24:36;100832.53;;;39.76;36.98
74230;BME280;62589;12.568;99.958;2023-04-24T05:27:03;100825.19;;;39.82;38.20
74230;BME280;62589;12.568;99.958;2023-04-24T05:29:31;100828.06;;;39.79;37.24
74230;BME280;62589;12.568;99.958;2023-04-24T05:32:00;100818.69;;;39.85;36.87
74230;BME280;62589;12.568;99.958;2023-04-24T05:34:27;100813.94;;;39.82;36.57
74230;BME280;62589;12.568;99.958;2023-04-24T05:36:53;100807.19;;;39.80;35.46
74230;BME280;62589;12.568;99.958;2023-04-24T05:39:20;100804.59;;;39.89;35.00
74230;BME280;62589;12.568;99.958;2023-04-24T05:41:46;100796.28;;;39.82;35.75
74230;BME280;62589;12.568;99.958;2023-04-24T05:44:13;100786.19;;;39.84;34.68
74230;BME280;62589;12.568;99.958;2023-04-24T05:46:39;100778.63;;;39.81;35.58
74230;BME280;62589;12.568;99.958;2023-04-24T05:49:06;100772.88;;;39.89;36.30
74230;BME280;62589;12.568;99.958;2023-04-24T05:51:32;100764.94;;;39.83;35.74
74230;BME280;62589;12.568;99.958;2023-04-24T05:53:58;100766.50;;;39.68;35.59
74230;BME280;62589;12.568;99.958;2023-04-24T05:56:25;100761.06;;;39.77;35.24
74230;BME280;62589;12.568;99.958;2023-04-24T05:58:51;100748.41;;;39.69;35.57
74230;BME280;62589;12.568;99.958;2023-04-24T06:01:18;100763.16;;;39.73;33.76
74230;BME280;62589;12.568;99.958;2023-04-24T06:03:45;100758.50;;;39.67;34.38
74230;BME280;62589;12.568;99.958;2023-04-24T06:06:11;100759.81;;;39.62;36.25
74230;BME280;62589;12.568;99.958;2023-04-24T06:08:38;100749.28;;;39.66;35.95
74230;BME280;62589;12.568;99.958;2023-04-24T06:11:04;100757.34;;;39.64;34.92
74230;BME280;62589;12.568;99.958;2023-04-24T06:13:31;100744.97;;;39.62;35.00
74230;BME280;62589;12.568;99.958;2023-04-24T06:15:57;100738.91;;;39.63;35.01
74230;BME280;62589;12.568;99.958;2023-04-24T06:18:23;100726.53;;;39.61;35.62
74230;BME280;62589;12.568;99.958;2023-04-24T06:20:50;100726.00;;;39.66;36.16
74230;BME280;62589;12.568;99.958;2023-04-24T06:23:17;100720.56;;;39.59;35.31
74230;BME280;62589;12.568;99.958;2023-04-24T06:25:44;100718.69;;;39.52;36.10
74230;BME280;62589;12.568;99.958;2023-04-24T06:28:10;100714.13;;;39.58;35.99
74230;BME280;62589;12.568;99.958;2023-04-24T06:30:36;100715.66;;;39.63;35.96
74230;BME280;62589;12.568;99.958;2023-04-24T06:33:03;100702.03;;;39.61;36.47
74230;BME280;62589;12.568;99.958;2023-04-24T06:35:29;100702.31;;;39.67;35.96
74230;BME280;62589;12.568;99.958;2023-04-24T06:37:56;100695.00;;;39.53;37.89
74230;BME280;62589;12.568;99.958;2023-04-24T06:40:22;100690.94;;;39.54;37.01
74230;BME280;62589;12.568;99.958;2023-04-24T06:42:49;100684.63;;;39.50;36.11
74230;BME280;62589;12.568;99.958;2023-04-24T06:45:15;100672.59;;;39.49;36.47
74230;BME280;62589;12.568;99.958;2023-04-24T06:47:42;100667.88;;;39.46;36.90
74230;BME280;62589;12.568;99.958;2023-04-24T06:50:08;100659.81;;;39.48;35.76
74230;BME280;62589;12.568;99.958;2023-04-24T06:52:35;100655.72;;;39.49;36.37
74230;BME280;62589;12.568;99.958;2023-04-24T06:55:04;100650.81;;;39.54;34.82
74230;BME280;62589;12.568;99.958;2023-04-24T06:57:31;100662.47;;;39.36;36.83
74230;BME280;62589;12.568;99.958;2023-04-24T06:59:58;100659.94;;;39.41;35.84
74230;BME280;62589;12.568;99.958;2023-04-24T07:02:25;100644.59;;;39.46;35.90
74230;BME280;62589;12.568;99.958;2023-04-24T07:04:51;100647.31;;;39.49;36.71
74230;BME280;62589;12.568;99.958;2023-04-24T07:07:18;100637.41;;;39.45;36.68
74230;BME280;62589;12.568;99.958;2023-04-24T07:09:45;100630.44;;;39.49;36.99
74230;BME280;62589;12.568;99.958;2023-04-24T07:12:11;100620.56;;;39.45;36.83
74230;BME280;62589;12.568;99.958;2023-04-24T07:14:39;100610.53;;;39.44;35.51
74230;BME280;62589;12.568;99.958;2023-04-24T07:17:06;100611.69;;;39.46;36.83
74230;BME280;62589;12.568;99.958;2023-04-24T07:19:35;100601.25;;;39.47;36.10
74230;BME280;62589;12.568;99.958;2023-04-24T07:22:02;100603.69;;;39.45;35.90
74230;BME280;62589;12.568;99.958;2023-04-24T07:24:29;100595.91;;;39.33;35.24
74230;BME280;62589;12.568;99.958;2023-04-24T07:26:58;100609.97;;;39.33;36.22
74230;BME280;62589;12.568;99.958;2023-04-24T07:29:27;100604.25;;;39.36;37.28
74230;BME280;62589;12.568;99.958;2023-04-24T07:31:53;100599.97;;;39.32;37.44
74230;BME280;62589;12.568;99.958;2023-04-24T07:34:20;100601.47;;;39.36;36.95
74230;BME280;62589;12.568;99.958;2023-04-24T07:36:46;100605.56;;;39.32;38.07
74230;BME280;62589;12.568;99.958;2023-04-24T07:39:13;100599.44;;;39.37;37.22
74230;BME280;62589;12.568;99.958;2023-04-24T07:41:39;100598.72;;;39.33;35.51
74230;BME280;62589;12.568;99.958;2023-04-24T07:44:06;100597.84;;;39.36;36.71
74230;BME280;62589;12.568;99.958;2023-04-24T07:46:32;100592.69;;;39.34;36.84
74230;BME280;62589;12.568;99.958;2023-04-24T07:48:58;100579.94;;;39.30;36.29
74230;BME280;62589;12.568;99.958;2023-04-24T07:51:27;100581.53;;;39.31;37.25
74230;BME280;62589;12.568;99.958;2023-04-24T07:53:53;100579.63;;;39.28;36.35
74230;BME280;62589;12.568;99.958;2023-04-24T07:56:23;100565.22;;;39.26;36.55
74230;BME280;62589;12.568;99.958;2023-04-24T07:58:49;100557.59;;;39.26;37.37
74230;BME280;62589;12.568;99.958;2023-04-24T08:01:16;100551.63;;;39.24;37.94
74230;BME280;62589;12.568;99.958;2023-04-24T08:03:42;100546.44;;;39.23;36.19
74230;BME280;62589;12.568;99.958;2023-04-24T08:06:09;100557.75;;;39.03;37.86
74230;BME280;62589;12.568;99.958;2023-04-24T08:08:35;100561.00;;;39.01;37.77
74230;BME280;62589;12.568;99.958;2023-04-24T08:11:02;100552.50;;;39.05;37.74
74230;BME280;62589;12.568;99.958;2023-04-24T08:13:28;100555.28;;;39.05;37.26
74230;BME280;62589;12.568;99.958;2023-04-24T08:15:56;100546.44;;;39.06;38.42
74230;BME280;62589;12.568;99.958;2023-04-24T08:18:23;100542.91;;;39.02;38.69
74230;BME280;62589;12.568;99.958;2023-04-24T08:20:49;100536.94;;;39.00;38.72
74230;BME280;62589;12.568;99.958;2023-04-24T08:23:16;100529.91;;;39.08;39.00
74230;BME280;62589;12.568;99.958;2023-04-24T08:25:42;100535.53;;;39.08;39.18
74230;BME280;62589;12.568;99.958;2023-04-24T08:28:09;100526.25;;;39.11;38.53
74230;BME280;62589;12.568;99.958;2023-04-24T08:30:36;100523.28;;;39.02;36.88
74230;BME280;62589;12.568;99.958;2023-04-24T08:33:04;100525.88;;;39.09;37.36
74230;BME280;62589;12.568;99.958;2023-04-24T08:35:30;100520.38;;;39.06;37.24
74230;BME280;62589;12.568;99.958;2023-04-24T08:37:57;100524.94;;;39.00;37.12
74230;BME280;62589;12.568;99.958;2023-04-24T08:40:28;100527.66;;;39.03;35.81
74230;BME280;62589;12.568;99.958;2023-04-24T08:42:56;100531.81;;;38.95;38.42
74230;BME280;62589;12.568;99.958;2023-04-24T08:45:23;100534.97;;;38.97;39.67
74230;BME280;62589;12.568;99.958;2023-04-24T08:47:50;100534.19;;;38.97;38.43
74230;BME280;62589;12.568;99.958;2023-04-24T08:50:19;100534.09;;;38.84;36.72
74230;BME280;62589;12.568;99.958;2023-04-24T08:52:46;100529.34;;;38.81;36.94
74230;BME280;62589;12.568;99.958;2023-04-24T08:55:13;100531.88;;;38.75;38.34
74230;BME280;62589;12.568;99.958;2023-04-24T08:57:40;100535.75;;;38.81;38.26
74230;BME280;62589;12.568;99.958;2023-04-24T09:00:07;100547.13;;;38.55;38.96
74230;BME280;62589;12.568;99.958;2023-04-24T09:02:34;100536.66;;;38.59;38.70
74230;BME280;62589;12.568;99.958;2023-04-24T09:05:02;100538.69;;;38.58;39.53
74230;BME280;62589;12.568;99.958;2023-04-24T09:07:30;100529.75;;;38.63;39.80
74230;BME280;62589;12.568;99.958;2023-04-24T09:09:59;100535.44;;;38.60;40.18
74230;BME280;62589;12.568;99.958;2023-04-24T09:12:27;100534.41;;;38.50;40.65
74230;BME280;62589;12.568;99.958;2023-04-24T09:14:54;100531.09;;;38.55;40.38
74230;BME280;62589;12.568;99.958;2023-04-24T09:17:21;100533.78;;;38.42;40.57
74230;BME280;62589;12.568;99.958;2023-04-24T09:19:49;100533.19;;;38.51;40.35
74230;BME280;62589;12.568;99.958;2023-04-24T09:22:15;100530.09;;;38.45;40.25
74230;BME280;62589;12.568;99.958;2023-04-24T09:24:42;100532.47;;;38.47;40.77
74230;BME280;62589;12.568;99.958;2023-04-24T09:27:11;100528.88;;;38.46;40.45
74230;BME280;62589;12.568;99.958;2023-04-24T09:29:39;100531.69;;;38.46;39.74
74230;BME280;62589;12.568;99.958;2023-04-24T09:32:23;100527.28;;;38.45;39.57
74230;BME280;62589;12.568;99.958;2023-04-24T09:35:09;100527.38;;;38.42;38.90
74230;BME280;62589;12.568;99.958;2023-04-24T09:37:38;100521.00;;;38.41;38.85
74230;BME280;62589;12.568;99.958;2023-04-24T09:40:19;100518.53;;;38.43;39.91
74230;BME280;62589;12.568;99.958;2023-04-24T09:42:52;100527.22;;;38.49;40.23
74230;BME280;62589;12.568;99.958;2023-04-24T09:45:19;100525.44;;;38.39;40.14
74230;BME280;62589;12.568;99.958;2023-04-24T09:47:46;100531.16;;;38.51;39.58
74230;BME280;62589;12.568;99.958;2023-04-24T09:50:14;100516.06;;;38.45;39.06
74230;BME280;62589;12.568;99.958;2023-04-24T09:52:43;100526.97;;;38.43;39.86
74230;BME280;62589;12.568;99.958;2023-04-24T09:55:20;100521.84;;;38.38;39.43
74230;BME280;62589;12.568;99.958;2023-04-24T09:57:51;100532.34;;;38.34;39.60
74230;BME280;62589;12.568;99.958;2023-04-24T10:00:21;100529.19;;;38.32;39.86
74230;BME280;62589;12.568;99.958;2023-04-24T10:03:02;100549.53;;;38.36;39.61
74230;BME280;62589;12.568;99.958;2023-04-24T10:05:33;100542.66;;;38.21;39.49
74230;BME280;62589;12.568;99.958;2023-04-24T10:08:08;100547.63;;;38.10;38.89
74230;BME280;62589;12.568;99.958;2023-04-24T10:10:45;100550.84;;;38.08;39.68
74230;BME280;62589;12.568;99.958;2023-04-24T10:13:17;100548.84;;;38.09;38.78
74230;BME280;62589;12.568;99.958;2023-04-24T10:15:44;100547.94;;;38.15;38.61
74230;BME280;62589;12.568;99.958;2023-04-24T10:18:12;100551.25;;;38.10;39.06
74230;BME280;62589;12.568;99.958;2023-04-24T10:20:39;100559.09;;;38.19;39.75
74230;BME280;62589;12.568;99.958;2023-04-24T10:23:06;100549.47;;;38.20;39.56
74230;BME280;62589;12.568;99.958;2023-04-24T10:25:34;100550.75;;;38.15;39.49
74230;BME280;62589;12.568;99.958;2023-04-24T10:28:02;100564.25;;;38.01;39.91
74230;BME280;62589;12.568;99.958;2023-04-24T10:30:31;100554.44;;;38.09;39.84
74230;BME280;62589;12.568;99.958;2023-04-24T10:33:03;100566.09;;;38.07;40.03
74230;BME280;62589;12.568;99.958;2023-04-24T10:35:39;100564.88;;;38.08;40.21
74230;BME280;62589;12.568;99.958;2023-04-24T10:38:12;100580.09;;;38.07;40.50
74230;BME280;62589;12.568;99.958;2023-04-24T10:40:40;100571.75;;;38.04;40.97
74230;BME280;62589;12.568;99.958;2023-04-24T10:43:08;100571.97;;;37.93;40.23
74230;BME280;62589;12.568;99.958;2023-04-24T10:45:38;100570.22;;;38.03;40.64
74230;BME280;62589;12.568;99.958;2023-04-24T10:48:08;100566.31;;;37.97;40.46
74230;BME280;62589;12.568;99.958;2023-04-24T10:50:47;100565.22;;;37.91;41.47
74230;BME280;62589;12.568;99.958;2023-04-24T10:53:18;100553.22;;;37.90;40.98
74230;BME280;62589;12.568;99.958;2023-04-24T10:56:06;100555.94;;;37.94;41.09
74230;BME280;62589;12.568;99.958;2023-04-24T10:58:41;100552.13;;;37.84;41.78
74230;BME280;62589;12.568;99.958;2023-04-24T11:01:29;100549.88;;;37.75;41.86
74230;BME280;62589;12.568;99.958;2023-04-24T11:04:00;100547.44;;;37.77;41.88
74230;BME280;62589;12.568;99.958;2023-04-24T11:06:32;100548.19;;;37.81;41.96
74230;BME280;62589;12.568;99.958;2023-04-24T11:22:13;100561.75;;;37.60;42.21
74230;BME280;62589;12.568;99.958;2023-04-24T11:24:49;100570.00;;;37.70;41.51
74230;BME280;62589;12.568;99.958;2023-04-24T11:27:20;100569.63;;;37.68;42.08
74230;BME280;62589;12.568;99.958;2023-04-24T11:29:49;100573.47;;;37.78;41.96
74230;BME280;62589;12.568;99.958;2023-04-24T11:32:39;100587.16;;;37.72;42.29
74230;BME280;62589;12.568;99.958;2023-04-24T11:35:10;100583.50;;;37.75;41.75
74230;BME280;62589;12.568;99.958;2023-04-24T11:37:40;100579.91;;;37.75;42.08
74230;BME280;62589;12.568;99.958;2023-04-24T11:40:09;100580.72;;;37.75;42.05
74230;BME280;62589;12.568;99.958;2023-04-24T11:42:38;100578.41;;;37.70;42.03
74230;BME280;62589;12.568;99.958;2023-04-24T11:45:16;100578.81;;;37.69;42.25
74230;BME280;62589;12.568;99.958;2023-04-24T11:47:43;100578.03;;;37.68;42.22
74230;BME280;62589;12.568;99.958;2023-04-24T11:50:15;100592.13;;;37.61;42.61
74230;BME280;62589;12.568;99.958;2023-04-24T11:52:47;100591.69;;;37.63;42.70
74230;BME280;62589;12.568;99.958;2023-04-24T11:55:31;100596.88;;;37.64;42.56
74230;BME280;62589;12.568;99.958;2023-04-24T11:57:59;100595.06;;;37.54;43.02
74230;BME280;62589;12.568;99.958;2023-04-24T12:00:31;100599.84;;;37.54;42.68
74230;BME280;62589;12.568;99.958;2023-04-24T12:03:08;100605.88;;;37.52;42.68
74230;BME280;62589;12.568;99.958;2023-04-24T12:05:35;100607.00;;;37.58;42.82
74230;BME280;62589;12.568;99.958;2023-04-24T12:08:02;100601.81;;;37.57;42.69
74230;BME280;62589;12.568;99.958;2023-04-24T12:10:30;100593.78;;;37.59;43.19
74230;BME280;62589;12.568;99.958;2023-04-24T12:12:58;100593.78;;;37.59;42.73
74230;BME280;62589;12.568;99.958;2023-04-24T12:15:25;100598.53;;;37.62;42.87
74230;BME280;62589;12.568;99.958;2023-04-24T12:17:53;100607.69;;;37.62;42.33
74230;BME280;62589;12.568;99.958;2023-04-24T12:20:33;100604.09;;;37.65;42.66
74230;BME280;62589;12.568;99.958;2023-04-24T12:23:00;100601.69;;;37.64;42.09
74230;BME280;62589;12.568;99.958;2023-04-24T12:25:29;100607.28;;;37.64;42.45
74230;BME280;62589;12.568;99.958;2023-04-24T12:28:16;100603.66;;;37.67;42.34
74230;BME280;62589;12.568;99.958;2023-04-24T12:30:49;100606.47;;;37.63;42.45
74230;BME280;62589;12.568;99.958;2023-04-24T12:33:19;100597.09;;;37.77;41.66
74230;BME280;62589;12.568;99.958;2023-04-24T12:35:45;100591.25;;;37.64;42.01
74230;BME280;62589;12.568;99.958;2023-04-24T12:38:13;100609.69;;;37.65;42.07
74230;BME280;62589;12.568;99.958;2023-04-24T12:40:40;100607.28;;;37.64;41.81
74230;BME280;62589;12.568;99.958;2023-04-24T12:43:15;100617.78;;;37.60;41.95
74230;BME280;62589;12.568;99.958;2023-04-24T12:45:41;100610.97;;;37.61;42.19
74230;BME280;62589;12.568;99.958;2023-04-24T12:48:08;100608.94;;;37.61;42.13
74230;BME280;62589;12.568;99.958;2023-04-24T12:50:34;100617.34;;;37.61;42.12
74230;BME280;62589;12.568;99.958;2023-04-24T12:53:00;100614.56;;;37.61;41.95
74230;BME280;62589;12.568;99.958;2023-04-24T12:55:27;100618.16;;;37.62;42.20
74230;BME280;62589;12.568;99.958;2023-04-24T12:57:53;100614.56;;;37.61;41.91
74230;BME280;62589;12.568;99.958;2023-04-24T13:00:21;100616.97;;;37.59;42.21
74230;BME280;62589;12.568;99.958;2023-04-24T13:02:47;100627.41;;;37.59;42.40
74230;BME280;62589;12.568;99.958;2023-04-24T13:05:14;100627.44;;;37.55;42.47
74230;BME280;62589;12.568;99.958;2023-04-24T13:07:41;100630.25;;;37.55;42.52
74230;BME280;62589;12.568;99.958;2023-04-24T13:10:08;100633.03;;;37.55;42.85
74230;BME280;62589;12.568;99.958;2023-04-24T13:12:34;100637.44;;;37.56;43.00
74230;BME280;62589;12.568;99.958;2023-04-24T13:15:01;100633.03;;;37.55;43.01
74230;BME280;62589;12.568;99.958;2023-04-24T13:17:27;100630.25;;;37.55;43.07
74230;BME280;62589;12.568;99.958;2023-04-24T13:19:54;100627.44;;;37.55;43.06
74230;BME280;62589;12.568;99.958;2023-04-24T13:22:21;100620.25;;;37.54;42.75
74230;BME280;62589;12.568;99.958;2023-04-24T13:24:47;100618.25;;;37.55;42.86